sensor_id;sensor_type;location;lat;lon;timestamp;pressure;altitude;pressure_sealevel;temperature;humidity
78671;BME280;68277;52.724;6.516;2023-05-10T00:01:52;100747.97;;;12.58;93.19
78671;BME280;68277;52.724;6.516;2023-05-10T00:04:17;100749.88;;;12.54;93.45
78671;BME280;68277;52.724;6.516;2023-05-10T00:06:43;100762.09;;;12.60;94.17
78671;BME280;68277;52.724;6.516;2023-05-10T00:09:08;100758.72;;;12.55;93.88
78671;BME280;68277;52.724;6.516;2023-05-10T00:11:34;100757.78;;;12.56;94.84
78671;BME280;68277;52.724;6.516;2023-05-10T00:13:59;100762.09;;;12.60;94.64
78671;BME280;68277;52.724;6.516;2023-05-10T00:16:25;100756.16;;;12.52;94.53
78671;BME280;68277;52.724;6.516;2023-05-10T00:18:50;100778.69;;;12.66;94.16
78671;BME280;68277;52.724;6.516;2023-05-10T00:21:15;100764.03;;;12.55;95.11
78671;BME280;68277;52.724;6.516;2023-05-10T00:23:41;100766.72;;;12.53;95.00
78671;BME280;68277;52.724;6.516;2023-05-10T00:26:06;100782.31;;;12.64;95.22
78671;BME280;68277;52.724;6.516;2023-05-10T00:28:32;100758.81;;;12.52;95.21
78671;BME280;68277;52.724;6.516;2023-05-10T00:30:57;100750.03;;;12.50;95.23
78671;BME280;68277;52.724;6.516;2023-05-10T00:33:23;100752.00;;;12.43;95.17
78671;BME280;68277;52.724;6.516;2023-05-10T00:35:48;100752.84;;;12.44;94.96
78671;BME280;68277;52.724;6.516;2023-05-10T00:38:14;100782.38;;;12.62;94.99
78671;BME280;68277;52.724;6.516;2023-05-10T00:40:40;100764.91;;;12.55;94.82
78671;BME280;68277;52.724;6.516;2023-05-10T00:43:12;100769.28;;;12.56;95.64
78671;BME280;68277;52.724;6.516;2023-05-10T00:45:40;100770.09;;;12.58;95.14
78671;BME280;68277;52.724;6.516;2023-05-10T00:48:06;100769.13;;;12.61;94.78
78671;BME280;68277;52.724;6.516;2023-05-10T00:50:32;100735.31;;;12.40;95.04
78671;BME280;68277;52.724;6.516;2023-05-10T00:52:59;100761.59;;;12.47;95.47
78671;BME280;68277;52.724;6.516;2023-05-10T00:55:25;100747.59;;;12.42;96.18
78671;BME280;68277;52.724;6.516;2023-05-10T00:57:52;100754.56;;;12.46;96.04
78671;BME280;68277;52.724;6.516;2023-05-10T01:00:19;100764.19;;;12.50;95.55
78671;BME280;68277;52.724;6.516;2023-05-10T01:02:45;100760.66;;;12.50;95.76
78671;BME280;68277;52.724;6.516;2023-05-10T01:05:11;100777.16;;;12.59;95.83
78671;BME280;68277;52.724;6.516;2023-05-10T01:07:37;100771.94;;;12.56;95.61
78671;BME280;68277;52.724;6.516;2023-05-10T01:10:04;100756.25;;;12.49;95.33
78671;BME280;68277;52.724;6.516;2023-05-10T01:12:30;100731.84;;;12.38;95.24
78671;BME280;68277;52.724;6.516;2023-05-10T01:14:55;100752.78;;;12.47;95.06
78671;BME280;68277;52.724;6.516;2023-05-10T01:17:22;100756.25;;;12.49;95.12
78671;BME280;68277;52.724;6.516;2023-05-10T01:19:47;100770.06;;;12.60;95.32
78671;BME280;68277;52.724;6.516;2023-05-10T01:22:50;100764.91;;;12.55;94.55
78671;BME280;68277;52.724;6.516;2023-05-10T01:33:49;100777.31;;;12.55;94.88
78671;BME280;68277;52.724;6.516;2023-05-10T01:36:35;100772.75;;;12.58;94.97
78671;BME280;68277;52.724;6.516;2023-05-10T01:39:27;100770.22;;;12.55;95.04
78671;BME280;68277;52.724;6.516;2023-05-10T01:42:11;100777.31;;;12.55;94.24
78671;BME280;68277;52.724;6.516;2023-05-10T01:45:01;100782.75;;;12.50;94.05
78671;BME280;68277;52.724;6.516;2023-05-10T01:47:43;100761.69;;;12.44;93.97
78671;BME280;68277;52.724;6.516;2023-05-10T01:50:18;100777.34;;;12.53;94.20
78671;BME280;68277;52.724;6.516;2023-05-10T01:52:51;100777.47;;;12.49;93.82
78671;BME280;68277;52.724;6.516;2023-05-10T01:55:21;100780.25;;;12.46;94.25
78671;BME280;68277;52.724;6.516;2023-05-10T01:57:52;100749.06;;;12.24;94.37
78671;BME280;68277;52.724;6.516;2023-05-10T02:00:22;100759.47;;;12.30;94.72
78671;BME280;68277;52.724;6.516;2023-05-10T02:02:51;100780.34;;;12.43;94.42
78671;BME280;68277;52.724;6.516;2023-05-10T02:05:18;100773.28;;;12.42;94.94
78671;BME280;68277;52.724;6.516;2023-05-10T02:07:45;100768.13;;;12.37;95.06
78671;BME280;68277;52.724;6.516;2023-05-10T02:10:11;100776.00;;;12.40;94.38
78671;BME280;68277;52.724;6.516;2023-05-10T02:12:42;100775.19;;;12.36;94.48
78671;BME280;68277;52.724;6.516;2023-05-10T02:15:18;100764.84;;;12.29;94.57
78671;BME280;68277;52.724;6.516;2023-05-10T02:17:46;100763.22;;;12.23;94.35
78671;BME280;68277;52.724;6.516;2023-05-10T02:20:12;100749.22;;;12.18;95.34
78671;BME280;68277;52.724;6.516;2023-05-10T02:22:40;100749.44;;;12.12;94.53
78671;BME280;68277;52.724;6.516;2023-05-10T02:25:08;100758.94;;;12.19;94.63
78671;BME280;68277;52.724;6.516;2023-05-10T02:27:34;100757.19;;;12.18;94.47
78671;BME280;68277;52.724;6.516;2023-05-10T02:30:02;100782.47;;;12.30;94.66
78671;BME280;68277;52.724;6.516;2023-05-10T02:32:28;100780.06;;;12.22;94.67
78671;BME280;68277;52.724;6.516;2023-05-10T02:34:56;100762.69;;;12.12;94.33
78671;BME280;68277;52.724;6.516;2023-05-10T02:37:22;100766.25;;;12.11;95.04
78671;BME280;68277;52.724;6.516;2023-05-10T02:39:50;100731.44;;;11.93;94.97
78671;BME280;68277;52.724;6.516;2023-05-10T02:42:26;100754.88;;;12.08;95.32
78671;BME280;68277;52.724;6.516;2023-05-10T02:44:54;100786.22;;;12.24;95.30
78671;BME280;68277;52.724;6.516;2023-05-10T02:47:19;100762.84;;;12.08;95.36
78671;BME280;68277;52.724;6.516;2023-05-10T02:49:45;100748.03;;;11.99;95.37
78671;BME280;68277;52.724;6.516;2023-05-10T02:52:20;100775.09;;;12.12;95.85
78671;BME280;68277;52.724;6.516;2023-05-10T02:54:49;100782.84;;;12.18;95.13
78671;BME280;68277;52.724;6.516;2023-05-10T02:57:22;100756.06;;;11.98;95.20
78671;BME280;68277;52.724;6.516;2023-05-10T02:59:48;100762.84;;;12.06;95.70
78671;BME280;68277;52.724;6.516;2023-05-10T03:02:14;100787.31;;;12.17;95.18
78671;BME280;68277;52.724;6.516;2023-05-10T03:04:40;100766.44;;;12.05;96.00
78671;BME280;68277;52.724;6.516;2023-05-10T03:07:07;100784.88;;;12.10;96.06
78671;BME280;68277;52.724;6.516;2023-05-10T03:09:33;100788.16;;;12.18;95.58
78671;BME280;68277;52.724;6.516;2023-05-10T03:15:40;100759.59;;;11.97;95.70
78671;BME280;68277;52.724;6.516;2023-05-10T03:17:52;100801.47;;;12.16;96.25
78671;BME280;68277;52.724;6.516;2023-05-10T03:20:25;100806.78;;;12.16;95.88
78671;BME280;68277;52.724;6.516;2023-05-10T03:22:55;100799.72;;;12.15;95.50
78671;BME280;68277;52.724;6.516;2023-05-10T03:25:25;100789.44;;;12.05;95.17
78671;BME280;68277;52.724;6.516;2023-05-10T03:27:53;100779.72;;;12.04;95.44
78671;BME280;68277;52.724;6.516;2023-05-10T03:30:19;100803.25;;;12.16;94.37
78671;BME280;68277;52.724;6.516;2023-05-10T03:32:45;100799.03;;;12.09;95.33
78671;BME280;68277;52.724;6.516;2023-05-10T03:35:12;100797.25;;;12.09;94.89
78671;BME280;68277;52.724;6.516;2023-05-10T03:37:42;100766.94;;;11.89;94.78
78671;BME280;68277;52.724;6.516;2023-05-10T03:40:09;100801.69;;;12.09;94.92
78671;BME280;68277;52.724;6.516;2023-05-10T03:42:36;100778.31;;;11.92;95.58
78671;BME280;68277;52.724;6.516;2023-05-10T03:45:02;100767.88;;;11.86;94.62
78671;BME280;68277;52.724;6.516;2023-05-10T03:47:28;100800.09;;;12.03;95.05
78671;BME280;68277;52.724;6.516;2023-05-10T03:49:54;100781.84;;;11.93;95.21
78671;BME280;68277;52.724;6.516;2023-05-10T03:52:20;100788.97;;;11.91;94.64
78671;BME280;68277;52.724;6.516;2023-05-10T03:54:46;100792.50;;;11.91;95.05
78671;BME280;68277;52.724;6.516;2023-05-10T03:57:12;100801.00;;;12.02;94.92
78671;BME280;68277;52.724;6.516;2023-05-10T03:59:38;100808.84;;;12.07;94.71
78671;BME280;68277;52.724;6.516;2023-05-10T04:02:03;100803.75;;;11.99;94.70
78671;BME280;68277;52.724;6.516;2023-05-10T04:04:29;100794.09;;;11.97;95.21
78671;BME280;68277;52.724;6.516;2023-05-10T04:06:54;100820.25;;;12.10;95.05
78671;BME280;68277;52.724;6.516;2023-05-10T04:09:20;100808.78;;;12.08;95.46
78671;BME280;68277;52.724;6.516;2023-05-10T04:11:45;100811.31;;;12.13;94.97
78671;BME280;68277;52.724;6.516;2023-05-10T04:14:11;100801.00;;;12.02;95.59
78671;BME280;68277;52.724;6.516;2023-05-10T04:16:36;100807.94;;;12.06;95.72
78671;BME280;68277;52.724;6.516;2023-05-10T04:19:02;100801.97;;;12.00;94.82
78671;BME280;68277;52.724;6.516;2023-05-10T04:21:27;100823.66;;;12.14;95.32
78671;BME280;68277;52.724;6.516;2023-05-10T04:23:52;100794.06;;;11.98;95.60
78671;BME280;68277;52.724;6.516;2023-05-10T04:26:18;100775.84;;;11.86;96.12
78671;BME280;68277;52.724;6.516;2023-05-10T04:28:43;100794.19;;;11.94;95.59
78671;BME280;68277;52.724;6.516;2023-05-10T04:31:09;100821.19;;;12.08;95.99
78671;BME280;68277;52.724;6.516;2023-05-10T04:33:35;100831.81;;;12.08;95.93
78671;BME280;68277;52.724;6.516;2023-05-10T04:36:01;100812.78;;;11.92;95.82
78671;BME280;68277;52.724;6.516;2023-05-10T04:38:27;100835.44;;;12.04;95.88
78671;BME280;68277;52.724;6.516;2023-05-10T04:40:53;100807.63;;;11.88;95.14
78671;BME280;68277;52.724;6.516;2023-05-10T04:43:19;100807.53;;;11.91;95.50
78671;BME280;68277;52.724;6.516;2023-05-10T04:45:44;100817.22;;;11.92;95.11
78671;BME280;68277;52.724;6.516;2023-05-10T04:48:10;100806.84;;;11.84;94.98
78671;BME280;68277;52.724;6.516;2023-05-10T04:50:35;100820.75;;;11.92;95.60
78671;BME280;68277;52.724;6.516;2023-05-10T04:53:01;100828.56;;;11.97;95.60
78671;BME280;68277;52.724;6.516;2023-05-10T04:55:27;100816.31;;;11.93;95.40
78671;BME280;68277;52.724;6.516;2023-05-10T04:57:53;100804.19;;;11.84;95.43
78671;BME280;68277;52.724;6.516;2023-05-10T05:00:20;100824.28;;;11.93;94.90
78671;BME280;68277;52.724;6.516;2023-05-10T05:02:47;100836.38;;;12.01;95.42
78671;BME280;68277;52.724;6.516;2023-05-10T05:05:13;100820.78;;;11.91;94.76
78671;BME280;68277;52.724;6.516;2023-05-10T05:07:39;100822.69;;;11.86;94.94
78671;BME280;68277;52.724;6.516;2023-05-10T05:10:07;100853.16;;;12.03;94.99
78671;BME280;68277;52.724;6.516;2023-05-10T05:12:34;100854.94;;;12.03;95.19
78671;BME280;68277;52.724;6.516;2023-05-10T05:15:02;100833.97;;;11.94;95.21
78671;BME280;68277;52.724;6.516;2023-05-10T05:17:30;100850.50;;;12.03;95.10
78671;BME280;68277;52.724;6.516;2023-05-10T05:19:56;100835.69;;;11.95;95.71
78671;BME280;68277;52.724;6.516;2023-05-10T05:22:21;100820.88;;;11.88;94.95
78671;BME280;68277;52.724;6.516;2023-05-10T05:24:54;100837.31;;;12.00;94.81
78671;BME280;68277;52.724;6.516;2023-05-10T05:27:19;100836.50;;;11.98;94.97
78671;BME280;68277;52.724;6.516;2023-05-10T05:29:56;100847.09;;;11.98;94.92
78671;BME280;68277;52.724;6.516;2023-05-10T05:32:22;100860.94;;;12.09;95.25
78671;BME280;68277;52.724;6.516;2023-05-10T05:34:47;100853.19;;;12.02;94.57
78671;BME280;68277;52.724;6.516;2023-05-10T05:37:14;100858.69;;;11.94;94.71
78671;BME280;68277;52.724;6.516;2023-05-10T05:39:39;100874.31;;;12.05;95.66
78671;BME280;68277;52.724;6.516;2023-05-10T05:42:05;100858.75;;;11.93;95.15
78671;BME280;68277;52.724;6.516;2023-05-10T05:44:30;100849.16;;;11.89;95.06
78671;BME280;68277;52.724;6.516;2023-05-10T05:46:56;100849.91;;;11.92;94.70
78671;BME280;68277;52.724;6.516;2023-05-10T05:49:21;100858.50;;;12.02;95.76
78671;BME280;68277;52.724;6.516;2023-05-10T05:51:47;100847.94;;;12.00;95.54
78671;BME280;68277;52.724;6.516;2023-05-10T05:54:14;100877.31;;;12.23;95.62
78671;BME280;68277;52.724;6.516;2023-05-10T05:56:41;100846.91;;;12.06;94.77
78671;BME280;68277;52.724;6.516;2023-05-10T05:59:07;100835.56;;;11.99;95.60
78671;BME280;68277;52.724;6.516;2023-05-10T06:01:33;100860.84;;;12.12;95.30
78671;BME280;68277;52.724;6.516;2023-05-10T06:03:58;100842.41;;;12.08;94.98
78671;BME280;68277;52.724;6.516;2023-05-10T06:06:24;100881.47;;;12.33;95.08
78671;BME280;68277;52.724;6.516;2023-05-10T06:08:49;100871.00;;;12.29;95.15
78671;BME280;68277;52.724;6.516;2023-05-10T06:11:15;100870.88;;;12.32;94.33
78671;BME280;68277;52.724;6.516;2023-05-10T06:13:40;100896.03;;;12.50;94.56
78671;BME280;68277;52.724;6.516;2023-05-10T06:16:07;100863.50;;;12.43;94.88
78671;BME280;68277;52.724;6.516;2023-05-10T06:18:33;100893.69;;;12.68;93.77
78671;BME280;68277;52.724;6.516;2023-05-10T06:20:58;100900.34;;;12.83;93.42
78671;BME280;68277;52.724;6.516;2023-05-10T06:23:23;100878.97;;;12.86;92.48
78671;BME280;68277;52.724;6.516;2023-05-10T06:25:51;100871.72;;;12.91;92.19
78671;BME280;68277;52.724;6.516;2023-05-10T06:28:16;100893.41;;;13.05;92.20
78671;BME280;68277;52.724;6.516;2023-05-10T06:30:42;100898.84;;;13.02;92.19
78671;BME280;68277;52.724;6.516;2023-05-10T06:33:07;100905.06;;;13.01;92.49
78671;BME280;68277;52.724;6.516;2023-05-10T06:35:33;100916.50;;;13.04;92.25
78671;BME280;68277;52.724;6.516;2023-05-10T06:37:59;100889.13;;;12.73;92.07
78671;BME280;68277;52.724;6.516;2023-05-10T06:40:24;100917.97;;;12.85;92.15
78671;BME280;68277;52.724;6.516;2023-05-10T06:42:50;100900.56;;;12.75;92.67
78671;BME280;68277;52.724;6.516;2023-05-10T06:45:16;100904.81;;;12.81;92.71
78671;BME280;68277;52.724;6.516;2023-05-10T06:47:42;100895.31;;;12.74;92.79
78671;BME280;68277;52.724;6.516;2023-05-10T06:50:08;100887.50;;;12.68;92.67
78671;BME280;68277;52.724;6.516;2023-05-10T06:52:34;100924.13;;;12.86;92.96
78671;BME280;68277;52.724;6.516;2023-05-10T06:54:59;100909.34;;;12.77;93.19
78671;BME280;68277;52.724;6.516;2023-05-10T06:57:25;100897.81;;;12.78;92.71
78671;BME280;68277;52.724;6.516;2023-05-10T06:59:51;100918.81;;;12.86;92.17
78671;BME280;68277;52.724;6.516;2023-05-10T07:02:17;100919.75;;;12.85;92.57
78671;BME280;68277;52.724;6.516;2023-05-10T07:04:42;100918.06;;;12.82;92.69
78671;BME280;68277;52.724;6.516;2023-05-10T07:07:08;100923.31;;;12.84;92.21
78671;BME280;68277;52.724;6.516;2023-05-10T07:09:34;100889.28;;;12.67;91.82
78671;BME280;68277;52.724;6.516;2023-05-10T07:11:59;100917.09;;;12.85;91.66
78671;BME280;68277;52.724;6.516;2023-05-10T07:14:25;100938.78;;;12.99;92.23
78671;BME280;68277;52.724;6.516;2023-05-10T07:16:50;100910.09;;;12.82;91.91
78671;BME280;68277;52.724;6.516;2023-05-10T07:19:15;100927.50;;;12.91;91.28
78671;BME280;68277;52.724;6.516;2023-05-10T07:21:41;100877.03;;;12.63;90.63
78671;BME280;68277;52.724;6.516;2023-05-10T07:24:08;100917.75;;;12.91;91.61
78671;BME280;68277;52.724;6.516;2023-05-10T07:26:34;100950.91;;;13.09;91.05
78671;BME280;68277;52.724;6.516;2023-05-10T07:28:59;100938.72;;;13.00;90.57
78671;BME280;68277;52.724;6.516;2023-05-10T07:31:25;100924.97;;;12.88;90.86
78671;BME280;68277;52.724;6.516;2023-05-10T07:33:50;100936.03;;;13.02;90.78
78671;BME280;68277;52.724;6.516;2023-05-10T07:36:16;100957.94;;;13.12;90.65
78671;BME280;68277;52.724;6.516;2023-05-10T07:38:41;100962.38;;;13.10;90.04
78671;BME280;68277;52.724;6.516;2023-05-10T07:41:07;100934.34;;;12.99;91.04
78671;BME280;68277;52.724;6.516;2023-05-10T07:43:32;100947.47;;;13.06;90.27
78671;BME280;68277;52.724;6.516;2023-05-10T07:45:57;100946.41;;;13.11;90.07
78671;BME280;68277;52.724;6.516;2023-05-10T07:48:25;100948.94;;;13.16;89.81
78671;BME280;68277;52.724;6.516;2023-05-10T07:50:50;100949.94;;;13.12;89.31
78671;BME280;68277;52.724;6.516;2023-05-10T07:53:16;100967.59;;;13.14;89.56
78671;BME280;68277;52.724;6.516;2023-05-10T07:55:42;100952.75;;;13.07;89.69
78671;BME280;68277;52.724;6.516;2023-05-10T07:58:07;100935.00;;;13.08;88.98
78671;BME280;68277;52.724;6.516;2023-05-10T08:00:33;100978.41;;;13.36;89.40
78671;BME280;68277;52.724;6.516;2023-05-10T08:02:59;100963.31;;;13.36;88.60
78671;BME280;68277;52.724;6.516;2023-05-10T08:05:24;100976.88;;;13.56;87.79
78671;BME280;68277;52.724;6.516;2023-05-10T08:07:50;100971.44;;;13.59;87.19
78671;BME280;68277;52.724;6.516;2023-05-10T08:10:15;100966.22;;;13.83;86.40
78671;BME280;68277;52.724;6.516;2023-05-10T08:12:42;100987.41;;;14.12;85.66
78671;BME280;68277;52.724;6.516;2023-05-10T08:15:08;100983.38;;;14.25;86.32
78671;BME280;68277;52.724;6.516;2023-05-10T08:17:33;100959.53;;;14.22;85.12
78671;BME280;68277;52.724;6.516;2023-05-10T08:20:01;100980.38;;;14.35;84.41
78671;BME280;68277;52.724;6.516;2023-05-10T08:22:26;100977.94;;;14.28;82.90
78671;BME280;68277;52.724;6.516;2023-05-10T08:24:52;100956.16;;;14.17;85.40
78671;BME280;68277;52.724;6.516;2023-05-10T08:27:17;100999.81;;;14.37;83.87
78671;BME280;68277;52.724;6.516;2023-05-10T08:29:44;100993.00;;;14.29;84.95
78671;BME280;68277;52.724;6.516;2023-05-10T08:32:09;100984.31;;;14.24;82.84
78671;BME280;68277;52.724;6.516;2023-05-10T08:34:35;101003.47;;;14.35;84.48
78671;BME280;68277;52.724;6.516;2023-05-10T08:37:01;100977.56;;;14.14;83.74
78671;BME280;68277;52.724;6.516;2023-05-10T08:39:26;100984.47;;;14.19;82.38
78671;BME280;68277;52.724;6.516;2023-05-10T08:41:53;100982.69;;;14.20;83.28
78671;BME280;68277;52.724;6.516;2023-05-10T08:44:23;101006.28;;;14.30;83.02
78671;BME280;68277;52.724;6.516;2023-05-10T08:46:53;101018.69;;;14.31;84.39
78671;BME280;68277;52.724;6.516;2023-05-10T08:49:19;101007.28;;;14.26;83.21
78671;BME280;68277;52.724;6.516;2023-05-10T08:51:50;101012.56;;;14.28;83.09
78671;BME280;68277;52.724;6.516;2023-05-10T08:54:17;101008.63;;;14.13;83.62
78671;BME280;68277;52.724;6.516;2023-05-10T08:56:42;101010.72;;;14.04;82.28
78671;BME280;68277;52.724;6.516;2023-05-10T08:59:09;101023.06;;;14.06;83.75
78671;BME280;68277;52.724;6.516;2023-05-10T09:01:35;101037.75;;;14.18;82.31
78671;BME280;68277;52.724;6.516;2023-05-10T09:04:00;101020.22;;;14.12;83.61
78671;BME280;68277;52.724;6.516;2023-05-10T09:06:26;101011.72;;;14.01;82.78
78671;BME280;68277;52.724;6.516;2023-05-10T09:08:52;101028.91;;;14.17;83.64
78671;BME280;68277;52.724;6.516;2023-05-10T09:11:17;101027.78;;;14.24;82.72
78671;BME280;68277;52.724;6.516;2023-05-10T09:13:46;101048.03;;;14.28;81.84
78671;BME280;68277;52.724;6.516;2023-05-10T09:16:12;101037.25;;;14.07;81.93
78671;BME280;68277;52.724;6.516;2023-05-10T09:18:38;101011.25;;;13.89;83.14
78671;BME280;68277;52.724;6.516;2023-05-10T09:21:03;101030.47;;;13.97;82.94
78671;BME280;68277;52.724;6.516;2023-05-10T09:23:28;101020.06;;;13.91;82.88
78671;BME280;68277;52.724;6.516;2023-05-10T09:26:07;101034.97;;;13.96;82.29
78671;BME280;68277;52.724;6.516;2023-05-10T09:28:52;101051.75;;;13.97;82.99
78671;BME280;68277;52.724;6.516;2023-05-10T09:31:17;101041.41;;;13.89;82.41
78671;BME280;68277;52.724;6.516;2023-05-10T09:33:44;101039.50;;;13.93;83.62
78671;BME280;68277;52.724;6.516;2023-05-10T09:36:10;101047.22;;;14.00;84.08
78671;BME280;68277;52.724;6.516;2023-05-10T09:38:49;101042.41;;;14.11;83.43
78671;BME280;68277;52.724;6.516;2023-05-10T09:41:22;101038.84;;;14.12;83.08
78671;BME280;68277;52.724;6.516;2023-05-10T09:43:49;101068.81;;;14.45;83.56
78671;BME280;68277;52.724;6.516;2023-05-10T09:46:15;101063.63;;;14.65;82.99
78671;BME280;68277;52.724;6.516;2023-05-10T09:48:43;101044.75;;;14.47;82.19
78671;BME280;68277;52.724;6.516;2023-05-10T09:51:18;101052.09;;;14.40;81.49
78671;BME280;68277;52.724;6.516;2023-05-10T09:53:44;101054.28;;;14.27;82.52
78671;BME280;68277;52.724;6.516;2023-05-10T09:56:09;101060.56;;;14.25;83.48
78671;BME280;68277;52.724;6.516;2023-05-10T09:58:36;101079.00;;;14.32;83.61
78671;BME280;68277;52.724;6.516;2023-05-10T10:01:03;101065.22;;;14.20;83.27
78671;BME280;68277;52.724;6.516;2023-05-10T10:03:29;101072.09;;;14.25;83.61
78671;BME280;68277;52.724;6.516;2023-05-10T10:05:55;101059.81;;;14.21;83.55
78671;BME280;68277;52.724;6.516;2023-05-10T10:08:21;101076.28;;;14.34;82.93
78671;BME280;68277;52.724;6.516;2023-05-10T10:10:47;101097.06;;;14.49;82.53
78671;BME280;68277;52.724;6.516;2023-05-10T10:13:13;101083.75;;;14.49;82.79
78671;BME280;68277;52.724;6.516;2023-05-10T10:15:38;101080.91;;;14.54;82.56
78671;BME280;68277;52.724;6.516;2023-05-10T10:18:05;101087.78;;;14.61;82.37
78671;BME280;68277;52.724;6.516;2023-05-10T10:20:30;101078.91;;;14.60;82.27
78671;BME280;68277;52.724;6.516;2023-05-10T10:22:56;101088.53;;;14.64;82.59
78671;BME280;68277;52.724;6.516;2023-05-10T10:25:22;101110.41;;;14.74;82.56
78671;BME280;68277;52.724;6.516;2023-05-10T10:35:33;101085.38;;;14.53;82.62
78671;BME280;68277;52.724;6.516;2023-05-10T10:37:59;101113.81;;;14.77;82.50
78671;BME280;68277;52.724;6.516;2023-05-10T10:40:33;101093.47;;;14.75;82.05
78671;BME280;68277;52.724;6.516;2023-05-10T10:43:22;101113.78;;;14.79;81.68
78671;BME280;68277;52.724;6.516;2023-05-10T10:48:47;101095.66;;;14.64;82.09
78671;BME280;68277;52.724;6.516;2023-05-10T10:51:14;101116.28;;;14.83;81.78
78671;BME280;68277;52.724;6.516;2023-05-10T10:53:40;101084.00;;;14.91;81.73
78671;BME280;68277;52.724;6.516;2023-05-10T10:56:09;101106.75;;;15.24;80.26
78671;BME280;68277;52.724;6.516;2023-05-10T10:58:37;101113.59;;;15.31;79.55
78671;BME280;68277;52.724;6.516;2023-05-10T11:01:11;101103.94;;;15.29;79.13
78671;BME280;68277;52.724;6.516;2023-05-10T11:03:37;101108.97;;;15.36;80.63
78671;BME280;68277;52.724;6.516;2023-05-10T11:06:05;101105.31;;;15.39;80.72
78671;BME280;68277;52.724;6.516;2023-05-10T11:08:32;101099.00;;;15.41;80.27
78671;BME280;68277;52.724;6.516;2023-05-10T11:13:44;101124.91;;;15.62;79.18
78671;BME280;68277;52.724;6.516;2023-05-10T11:16:20;101128.50;;;15.61;78.50
78671;BME280;68277;52.724;6.516;2023-05-10T11:18:55;101123.56;;;15.51;78.72
78671;BME280;68277;52.724;6.516;2023-05-10T11:21:22;101112.00;;;15.27;78.21
78671;BME280;68277;52.724;6.516;2023-05-10T11:23:49;101117.16;;;15.32;79.77
78671;BME280;68277;52.724;6.516;2023-05-10T11:26:16;101137.16;;;15.45;77.85
78671;BME280;68277;52.724;6.516;2023-05-10T11:31:08;101141.25;;;15.29;78.19
78671;BME280;68277;52.724;6.516;2023-05-10T11:36:32;101144.44;;;15.15;79.55
78671;BME280;68277;52.724;6.516;2023-05-10T11:38:58;101146.13;;;15.18;80.18
78671;BME280;68277;52.724;6.516;2023-05-10T11:41:24;101135.97;;;15.04;80.04
78671;BME280;68277;52.724;6.516;2023-05-10T11:43:54;101147.06;;;15.17;80.14
78671;BME280;68277;52.724;6.516;2023-05-10T11:46:21;101099.88;;;14.95;80.02
78671;BME280;68277;52.724;6.516;2023-05-10T11:48:49;101141.25;;;15.29;79.94
78671;BME280;68277;52.724;6.516;2023-05-10T11:51:20;101138.31;;;15.36;80.17
78671;BME280;68277;52.724;6.516;2023-05-10T11:53:46;101138.41;;;15.33;79.20
78671;BME280;68277;52.724;6.516;2023-05-10T11:56:12;101144.69;;;15.32;79.37
78671;BME280;68277;52.724;6.516;2023-05-10T11:58:38;101158.56;;;15.42;79.47
78671;BME280;68277;52.724;6.516;2023-05-10T12:01:06;101158.59;;;15.40;79.74
78671;BME280;68277;52.724;6.516;2023-05-10T12:03:32;101124.41;;;15.28;79.42
78671;BME280;68277;52.724;6.516;2023-05-10T12:05:59;101160.19;;;15.47;78.72
78671;BME280;68277;52.724;6.516;2023-05-10T12:08:27;101141.41;;;15.26;78.32
78671;BME280;68277;52.724;6.516;2023-05-10T12:11:03;101158.78;;;15.36;78.03
78671;BME280;68277;52.724;6.516;2023-05-10T12:13:29;101148.44;;;15.27;78.72
78671;BME280;68277;52.724;6.516;2023-05-10T12:15:57;101175.66;;;15.36;77.09
78671;BME280;68277;52.724;6.516;2023-05-10T12:18:23;101190.25;;;15.26;77.44
78671;BME280;68277;52.724;6.516;2023-05-10T12:20:52;101181.97;;;15.34;79.16
78671;BME280;68277;52.724;6.516;2023-05-10T12:23:21;101165.25;;;15.29;78.93
78671;BME280;68277;52.724;6.516;2023-05-10T12:25:46;101178.28;;;15.38;79.10
78671;BME280;68277;52.724;6.516;2023-05-10T12:28:12;101175.47;;;15.41;78.79
78671;BME280;68277;52.724;6.516;2023-05-10T12:30:38;101188.13;;;15.60;78.13
78671;BME280;68277;52.724;6.516;2023-05-10T12:33:09;101150.34;;;15.48;77.35
78671;BME280;68277;52.724;6.516;2023-05-10T12:38:29;101190.97;;;15.79;77.20
78671;BME280;68277;52.724;6.516;2023-05-10T12:41:16;101186.53;;;15.78;75.70
78671;BME280;68277;52.724;6.516;2023-05-10T12:43:42;101175.31;;;15.70;76.79
78671;BME280;68277;52.724;6.516;2023-05-10T12:46:12;101199.78;;;15.81;76.99
78671;BME280;68277;52.724;6.516;2023-05-10T12:48:39;101179.94;;;15.65;74.78
78671;BME280;68277;52.724;6.516;2023-05-10T12:51:06;101172.81;;;15.65;76.43
78671;BME280;68277;52.724;6.516;2023-05-10T12:53:35;101201.72;;;15.78;76.69
78671;BME280;68277;52.724;6.516;2023-05-10T12:56:00;101197.09;;;15.81;76.34
78671;BME280;68277;52.724;6.516;2023-05-10T12:58:26;101160.00;;;15.75;76.86
78671;BME280;68277;52.724;6.516;2023-05-10T13:00:54;101180.03;;;16.08;76.82
78671;BME280;68277;52.724;6.516;2023-05-10T13:03:21;101205.94;;;16.28;73.57
78671;BME280;68277;52.724;6.516;2023-05-10T13:05:47;101208.41;;;16.32;76.45
78671;BME280;68277;52.724;6.516;2023-05-10T13:08:12;101188.59;;;16.16;72.73
78671;BME280;68277;52.724;6.516;2023-05-10T13:10:38;101175.53;;;16.09;75.59
78671;BME280;68277;52.724;6.516;2023-05-10T13:13:04;101207.41;;;16.13;74.26
78671;BME280;68277;52.724;6.516;2023-05-10T13:15:30;101200.44;;;16.09;76.57
78671;BME280;68277;52.724;6.516;2023-05-10T13:17:56;101213.69;;;16.12;75.96
78671;BME280;68277;52.724;6.516;2023-05-10T13:20:21;101193.38;;;16.08;75.39
78671;BME280;68277;52.724;6.516;2023-05-10T13:22:48;101185.97;;;15.93;74.63
78671;BME280;68277;52.724;6.516;2023-05-10T13:25:13;101212.38;;;16.01;75.72